Time;durP1;ratioP1;P1;durP2;ratioP2;P2;SDS_P1;SDS_P2;PMS_P1;PMS_P2;Temp;Humidity;BMP_temperature;BMP_pressure;BME280_temperature;BME280_humidity;BME280_pressure;Samples;Min_cycle;Max_cycle;Signal;HPM_P1;HPM_P2
2022/05/30 00:01:44;;;;;;;6.67;5.97;;;6.30;99.90;;;;;;5062087;28;20237;-86
2022/05/30 00:04:10;;;;;;;6.70;5.30;;;;;;;;;;5064455;28;20252;-86
2022/05/30 00:06:36;;;;;;;10.00;5.63;;;;;;;;;;5064497;28;20288;-86
2022/05/30 00:09:02;;;;;;;5.47;5.00;;;6.10;99.90;;;;;;5063412;28;20409;-86
2022/05/30 00:11:28;;;;;;;5.27;4.73;;;;;;;;;;5063823;28;20182;-86
2022/05/30 00:13:54;;;;;;;6.10;4.73;;;6.00;99.90;;;;;;5065835;28;20451;-86
2022/05/30 00:16:25;;;;;;;4.33;3.93;;;5.90;99.90;;;;;;5063565;28;20801;-86
2022/05/30 00:18:51;;;;;;;6.00;4.07;;;;;;;;;;5064558;28;20223;-86
2022/05/30 00:21:19;;;;;;;4.50;4.10;;;5.80;99.90;;;;;;5062098;28;20400;-86
2022/05/30 00:23:45;;;;;;;6.33;4.37;;;;;;;;;;5062730;28;20420;-86
2022/05/30 00:26:10;;;;;;;4.50;4.10;;;5.80;99.90;;;;;;5063672;28;20918;-86
2022/05/30 00:28:36;;;;;;;4.93;4.33;;;;;;;;;;5064404;28;20182;-86
2022/05/30 00:31:03;;;;;;;5.30;4.80;;;;;;;;;;5062420;28;20177;-86
2022/05/30 00:33:29;;;;;;;5.63;4.73;;;;;;;;;;5063738;28;20479;-86
2022/05/30 00:35:54;;;;;;;5.40;4.73;;;5.70;99.90;;;;;;5064427;28;20420;-86
2022/05/30 00:38:20;;;;;;;5.43;4.67;;;;;;;;;;5063115;28;20205;-86
2022/05/30 00:40:47;;;;;;;25.30;13.07;;;;;;;;;;5062927;28;20184;-86
2022/05/30 00:43:32;;;;;;;12.90;8.43;;;5.80;99.90;;;;;;5063694;28;20450;-86
2022/05/30 00:46:00;;;;;;;18.00;10.07;;;5.70;99.90;;;;;;5063120;28;20534;-86
2022/05/30 00:48:31;;;;;;;14.90;8.87;;;5.60;99.90;;;;;;5063981;28;20416;-86
2022/05/30 00:51:02;;;;;;;21.33;11.33;;;5.50;99.90;;;;;;5064893;28;20475;-86
2022/05/30 00:53:29;;;;;;;26.30;14.27;;;5.50;99.90;;;;;;5072128;28;20474;-84
2022/05/30 00:55:55;;;;;;;11.20;8.03;;;5.40;99.90;;;;;;5068752;28;20448;-86
2022/05/30 00:58:22;;;;;;;22.47;13.30;;;5.40;99.90;;;;;;5060860;28;20404;-86
2022/05/30 01:00:48;;;;;;;13.83;8.30;;;5.30;99.90;;;;;;5059124;28;20924;-86
2022/05/30 01:08:43;;;;;;;10.00;7.33;;;5.40;99.90;;;;;;5060185;28;20873;-85
2022/05/30 01:11:09;;;;;;;12.57;9.50;;;5.40;99.90;;;;;;5059321;28;20499;-85
2022/05/30 01:13:37;;;;;;;20.97;13.40;;;5.50;99.90;;;;;;5058825;28;20494;-85
2022/05/30 01:16:04;;;;;;;30.57;20.53;;;;;;;;;;5058360;28;20203;-85
2022/05/30 01:18:45;;;;;;;21.17;13.47;;;5.60;99.90;;;;;;5058237;28;20495;-85
2022/05/30 01:21:11;;;;;;;17.17;11.97;;;5.60;99.90;;;;;;5056741;28;20971;-85
2022/05/30 01:23:58;;;;;;;12.43;9.87;;;5.60;99.90;;;;;;5056489;28;20420;-85
2022/05/30 01:27:04;;;;;;;9.70;8.47;;;5.60;99.90;;;;;;5058134;28;20204;-85
2022/05/30 01:29:34;;;;;;;9.07;7.73;;;5.60;99.90;;;;;;5058861;28;20416;-85
2022/05/30 01:32:00;;;;;;;8.97;8.07;;;5.60;99.90;;;;;;5058515;28;20442;-86
2022/05/30 01:34:27;;;;;;;7.20;6.10;;;5.50;99.90;;;;;;5056613;28;20420;-85
2022/05/30 01:36:53;;;;;;;8.07;5.60;;;5.50;99.90;;;;;;5061122;28;20223;-86
2022/05/30 01:39:19;;;;;;;6.73;6.00;;;;;;;;;;5066020;28;20408;-85
2022/05/30 01:41:45;;;;;;;6.70;5.93;;;5.60;99.90;;;;;;5065587;28;21043;-86
2022/05/30 01:44:11;;;;;;;6.77;5.73;;;;;;;;;;5067465;28;20239;-86
2022/05/30 01:46:37;;;;;;;5.83;5.23;;;;;;;;;;5067172;28;20435;-85
2022/05/30 01:49:03;;;;;;;7.10;5.53;;;5.40;99.90;;;;;;5067848;28;20408;-86
2022/05/30 01:51:30;;;;;;;5.53;5.03;;;;;;;;;;5066455;28;20624;-85
2022/05/30 01:53:56;;;;;;;6.57;5.30;;;;;;;;;;5066508;28;20459;-86
2022/05/30 01:56:22;;;;;;;6.33;5.00;;;;;;;;;;5065479;28;20439;-85
2022/05/30 01:58:48;;;;;;;5.30;4.80;;;;;;;;;;5065301;28;20439;-85
2022/05/30 02:01:20;;;;;;;5.40;4.90;;;5.40;99.90;;;;;;5067346;28;20407;-85
2022/05/30 02:03:47;;;;;;;5.57;5.07;;;5.30;99.90;;;;;;5067659;28;20400;-85
2022/05/30 02:06:13;;;;;;;5.73;5.13;;;;;;;;;;5066419;28;20436;-85
2022/05/30 02:08:39;;;;;;;7.83;5.60;;;;;;;;;;5066188;28;20936;-85
2022/05/30 02:11:08;;;;;;;6.13;5.53;;;;;;;;;;5066031;28;20777;-85
2022/05/30 02:13:34;;;;;;;14.50;5.80;;;;;;;;;;5066079;28;20546;-85
2022/05/30 02:18:47;;;;;;;7.37;5.37;;;5.50;99.90;;;;;;5068085;28;20475;-85
2022/05/30 02:21:13;;;;;;;9.27;7.90;;;5.50;99.90;;;;;;5066330;28;20416;-85
2022/05/30 02:23:38;;;;;;;14.43;11.93;;;5.50;99.90;;;;;;5066411;28;20248;-85
2022/05/30 02:26:04;;;;;;;9.73;6.80;;;5.60;99.90;;;;;;5066515;28;20288;-85
2022/05/30 02:28:30;;;;;;;6.87;5.93;;;;;;;;;;5066427;28;20180;-85
2022/05/30 02:30:57;;;;;;;6.63;5.60;;;;;;;;;;5066623;28;20235;-85
2022/05/30 02:38:52;;;;;;;7.13;5.80;;;5.50;99.90;;;;;;5068145;28;20392;-85
2022/05/30 02:41:20;;;;;;;7.73;6.17;;;5.50;99.90;;;;;;5065839;28;20416;-86
2022/05/30 02:43:46;;;;;;;7.93;5.97;;;;;;;;;;5066571;28;20193;-85
2022/05/30 02:46:13;;;;;;;7.17;5.83;;;5.50;99.90;;;;;;5066434;28;20464;-85
2022/05/30 02:48:39;;;;;;;6.77;5.77;;;;;;;;;;5066982;28;20551;-85
2022/05/30 02:51:04;;;;;;;6.63;5.93;;;5.60;99.90;;;;;;5068079;28;20479;-85
2022/05/30 02:53:30;;;;;;;5.47;4.93;;;;;;;;;;5066859;28;20901;-85
2022/05/30 02:55:56;;;;;;;8.77;5.23;;;5.60;99.90;;;;;;5065973;28;20193;-86
2022/05/30 02:58:22;;;;;;;6.27;5.67;;;5.60;99.90;;;;;;5066447;28;20170;-86
2022/05/30 03:00:48;;;;;;;6.27;5.47;;;5.60;99.90;;;;;;5065697;28;20165;-85
2022/05/30 03:03:13;;;;;;;6.13;5.23;;;5.70;99.90;;;;;;5065104;28;20187;-85
2022/05/30 03:05:39;;;;;;;5.83;5.23;;;5.60;99.90;;;;;;5065443;28;20268;-85
2022/05/30 03:08:06;;;;;;;5.63;5.13;;;5.60;99.90;;;;;;5065283;28;20181;-85
2022/05/30 03:10:32;;;;;;;5.70;5.10;;;5.60;99.90;;;;;;5066938;28;20208;-85
2022/05/30 03:12:58;;;;;;;5.60;5.10;;;5.60;99.90;;;;;;5067743;28;20458;-85
2022/05/30 03:15:24;;;;;;;7.53;4.47;;;5.60;99.90;;;;;;5065734;28;20264;-85
2022/05/30 03:17:51;;;;;;;6.23;5.17;;;5.60;99.90;;;;;;5067171;28;20221;-85
2022/05/30 03:20:17;;;;;;;5.07;4.57;;;;;;;;;;5065587;28;20408;-85
2022/05/30 03:22:43;;;;;;;5.37;4.10;;;;;;;;;;5066811;28;20420;-85
2022/05/30 03:25:10;;;;;;;6.53;5.20;;;5.70;99.90;;;;;;5066770;28;20424;-85
2022/05/30 03:27:36;;;;;;;7.73;5.43;;;5.70;99.90;;;;;;5068366;28;20439;-85
2022/05/30 03:30:03;;;;;;;5.87;4.67;;;5.70;99.90;;;;;;5066329;28;20448;-86
2022/05/30 03:32:29;;;;;;;5.77;5.03;;;;;;;;;;5065740;28;20224;-85
2022/05/30 03:34:54;;;;;;;5.67;5.17;;;5.80;99.90;;;;;;5066107;28;20412;-85
2022/05/30 03:37:20;;;;;;;7.97;5.60;;;5.70;99.90;;;;;;5067488;28;20193;-85
2022/05/30 03:39:46;;;;;;;6.40;5.60;;;;;;;;;;5067814;28;20170;-85
2022/05/30 03:42:14;;;;;;;6.10;5.50;;;5.70;99.90;;;;;;5068241;28;20218;-86
2022/05/30 03:44:41;;;;;;;6.30;5.40;;;5.70;99.90;;;;;;5066966;28;20424;-85
2022/05/30 03:47:07;;;;;;;5.20;4.53;;;5.60;99.90;;;;;;5068160;28;20431;-85
2022/05/30 03:49:33;;;;;;;5.30;4.80;;;;;;;;;;5068096;28;20173;-85
2022/05/30 03:51:59;;;;;;;5.47;4.53;;;5.50;99.90;;;;;;5068457;28;20411;-86
2022/05/30 03:54:26;;;;;;;5.73;5.13;;;5.50;99.90;;;;;;5068174;28;20174;-85
2022/05/30 03:56:52;;;;;;;5.13;4.60;;;5.40;99.90;;;;;;5067343;28;20499;-86
2022/05/30 03:59:18;;;;;;;6.13;5.50;;;5.40;99.90;;;;;;5066962;28;20341;-86
2022/05/30 04:01:44;;;;;;;6.63;5.93;;;;;;;;;;5067388;28;20173;-85
2022/05/30 04:04:12;;;;;;;8.93;6.37;;;5.40;99.90;;;;;;5067520;28;20408;-85
2022/05/30 04:06:38;;;;;;;8.27;6.00;;;;;;;;;;5067652;28;20212;-85
2022/05/30 04:09:04;;;;;;;6.00;5.40;;;;;;;;;;5068266;28;20408;-85
2022/05/30 04:11:30;;;;;;;6.27;5.67;;;5.30;99.90;;;;;;5070231;28;20422;-85
2022/05/30 04:13:57;;;;;;;7.07;5.67;;;;;;;;;;5076941;28;20463;-85
2022/05/30 04:16:23;;;;;;;7.77;7.00;;;5.20;99.90;;;;;;5077813;28;20424;-85
2022/05/30 04:18:49;;;;;;;7.50;6.73;;;5.30;99.90;;;;;;5077353;28;20407;-85
2022/05/30 04:21:15;;;;;;;8.30;6.90;;;5.20;99.90;;;;;;5076157;28;20462;-85
2022/05/30 04:23:42;;;;;;;7.87;7.07;;;5.10;99.90;;;;;;5062195;28;20249;-85
2022/05/30 04:26:09;;;;;;;8.37;6.50;;;5.30;99.90;;;;;;5061850;28;20208;-85
2022/05/30 04:28:35;;;;;;;7.70;6.73;;;5.30;99.90;;;;;;5062908;28;20435;-85
2022/05/30 04:31:13;;;;;;;10.50;7.03;;;5.40;99.90;;;;;;5061167;28;20938;-85
2022/05/30 04:33:43;;;;;;;7.23;6.13;;;5.40;99.90;;;;;;5061246;28;20209;-85
2022/05/30 04:36:13;;;;;;;9.20;6.73;;;5.40;99.90;;;;;;5060227;28;20511;-85
2022/05/30 04:38:39;;;;;;;7.90;6.23;;;5.40;99.90;;;;;;5061357;28;20404;-85
2022/05/30 04:41:05;;;;;;;8.80;7.10;;;5.50;99.90;;;;;;5059650;28;20169;-85
2022/05/30 04:43:31;;;;;;;7.80;7.00;;;5.40;99.90;;;;;;5056724;28;20420;-85
2022/05/30 04:46:07;;;;;;;9.20;7.07;;;5.60;99.90;;;;;;5054195;28;20467;-85
2022/05/30 04:48:33;;;;;;;9.90;8.87;;;5.60;99.90;;;;;;5054598;28;20177;-85
2022/05/30 04:50:59;;;;;;;9.20;8.30;;;5.70;99.90;;;;;;5058018;28;20422;-85
2022/05/30 04:53:24;;;;;;;8.10;6.93;;;5.70;99.90;;;;;;5063018;28;20201;-85
2022/05/30 04:55:50;;;;;;;10.13;7.27;;;;;;;;;;5064992;28;20204;-85
2022/05/30 04:58:16;;;;;;;7.80;7.00;;;;;;;;;;5065267;28;20176;-85
2022/05/30 05:00:42;;;;;;;7.03;6.40;;;5.90;99.90;;;;;;5064907;28;20773;-85
2022/05/30 05:03:07;;;;;;;10.80;7.90;;;6.00;99.90;;;;;;5066452;28;20185;-85
2022/05/30 05:05:33;;;;;;;7.47;6.77;;;6.10;99.90;;;;;;5065602;28;20188;-85
2022/05/30 05:08:15;;;;;;;7.23;6.50;;;6.00;99.90;;;;;;5064122;28;20201;-86
2022/05/30 05:10:48;;;;;;;8.97;6.53;;;6.10;99.90;;;;;;5063951;28;20567;-85
2022/05/30 05:13:13;;;;;;;10.80;6.17;;;6.20;99.90;;;;;;5064496;28;20531;-85
2022/05/30 05:15:39;;;;;;;8.73;6.37;;;6.40;99.90;;;;;;5071967;28;20510;-86
2022/05/30 05:18:05;;;;;;;6.90;6.20;;;6.40;99.90;;;;;;5061781;28;20692;-85
2022/05/30 05:20:36;;;;;;;7.53;6.83;;;6.40;99.90;;;;;;5063301;28;20177;-85
2022/05/30 05:23:02;;;;;;;6.80;5.50;;;6.60;99.90;;;;;;5062928;28;20623;-86
2022/05/30 05:25:28;;;;;;;6.83;6.20;;;6.70;99.90;;;;;;5061591;28;20427;-85
2022/05/30 05:27:53;;;;;;;7.40;5.50;;;6.80;99.90;;;;;;5059065;28;20197;-84
2022/05/30 05:30:20;;;;;;;7.67;6.17;;;6.80;99.90;;;;;;5061150;28;20713;-84
2022/05/30 05:32:46;;;;;;;5.63;4.93;;;6.80;99.90;;;;;;5059427;28;20201;-84
2022/05/30 05:35:12;;;;;;;5.77;4.60;;;6.90;99.90;;;;;;5059404;28;20940;-84
2022/05/30 05:37:38;;;;;;;5.23;4.73;;;7.00;99.90;;;;;;5061166;28;20691;-84
2022/05/30 05:40:04;;;;;;;6.50;4.77;;;7.00;99.90;;;;;;5059117;28;20603;-84
2022/05/30 05:42:30;;;;;;;5.80;4.50;;;7.20;99.90;;;;;;5059844;28;20487;-84
2022/05/30 05:44:56;;;;;;;5.90;5.10;;;7.30;99.90;;;;;;5059663;28;20212;-84
2022/05/30 05:47:21;;;;;;;6.10;4.93;;;7.30;99.90;;;;;;5061169;28;20204;-84
2022/05/30 05:49:47;;;;;;;6.03;4.83;;;;;;;;;;5060317;28;20178;-84
2022/05/30 05:52:13;;;;;;;4.53;4.03;;;7.50;99.90;;;;;;5058180;28;20188;-84
2022/05/30 05:54:38;;;;;;;5.03;4.00;;;7.60;99.90;;;;;;5058783;28;20184;-84
2022/05/30 05:57:04;;;;;;;3.33;3.03;;;7.70;99.90;;;;;;5058478;28;20201;-84
2022/05/30 05:59:30;;;;;;;3.17;2.73;;;7.70;99.90;;;;;;5059833;28;20592;-84
2022/05/30 06:01:56;;;;;;;5.13;3.80;;;7.80;99.90;;;;;;5060471;28;20518;-84
2022/05/30 06:04:21;;;;;;;3.57;3.00;;;7.80;99.90;;;;;;5060679;28;20240;-84
2022/05/30 06:06:47;;;;;;;3.60;3.27;;;7.90;99.90;;;;;;5058717;28;20257;-85
2022/05/30 06:09:13;;;;;;;3.67;3.37;;;8.00;99.90;;;;;;5059117;28;20177;-84
2022/05/30 06:11:39;;;;;;;3.77;3.30;;;8.00;99.90;;;;;;5060711;28;20186;-84
2022/05/30 06:14:04;;;;;;;4.70;3.60;;;8.10;99.90;;;;;;5063072;28;20625;-84
2022/05/30 06:16:33;;;;;;;4.80;3.57;;;8.00;99.90;;;;;;5063683;28;20199;-84
2022/05/30 06:19:01;;;;;;;3.60;3.13;;;8.30;99.90;;;;;;5063496;28;20670;-84
2022/05/30 06:21:29;;;;;;;4.57;3.07;;;8.30;99.90;;;;;;5064617;28;20653;-84
2022/05/30 06:23:56;;;;;;;2.93;2.63;;;8.40;99.90;;;;;;5064540;28;20189;-84
2022/05/30 06:26:22;;;;;;;4.10;2.47;;;8.50;99.90;;;;;;5064199;28;20284;-84
2022/05/30 06:28:48;;;;;;;2.40;2.20;;;8.70;99.90;;;;;;5062867;28;20269;-84
2022/05/30 06:31:17;;;;;;;3.07;2.33;;;8.80;99.90;;;;;;5064609;28;20178;-84
2022/05/30 06:33:43;;;;;;;2.43;2.23;;;8.90;99.90;;;;;;5062781;28;20207;-83
2022/05/30 06:36:12;;;;;;;3.73;2.07;;;9.00;99.90;;;;;;5063050;28;20207;-83
2022/05/30 06:38:38;;;;;;;2.93;2.50;;;9.10;99.90;;;;;;5064352;28;20214;-83
2022/05/30 06:41:17;;;;;;;4.63;1.90;;;9.20;99.90;;;;;;5063154;28;20182;-83
2022/05/30 06:43:44;;;;;;;2.17;1.90;;;9.40;99.90;;;;;;5064681;28;20212;-83
2022/05/30 06:46:11;;;;;;;3.47;1.57;;;9.40;99.90;;;;;;5063910;28;20289;-83
2022/05/30 06:48:37;;;;;;;1.67;1.57;;;9.50;99.90;;;;;;5063164;28;20186;-83
2022/05/30 06:51:08;;;;;;;2.20;2.00;;;9.60;99.90;;;;;;5063605;28;20185;-83
2022/05/30 06:53:34;;;;;;;3.37;2.00;;;9.70;99.90;;;;;;5064226;28;20210;-83
2022/05/30 06:56:00;;;;;;;3.00;2.03;;;9.70;99.90;;;;;;5065868;28;20187;-83
2022/05/30 06:58:27;;;;;;;3.47;1.63;;;9.80;99.90;;;;;;5064523;28;20174;-83
2022/05/30 07:00:58;;;;;;;3.03;1.63;;;9.90;99.90;;;;;;5066323;28;20164;-83
2022/05/30 07:03:24;;;;;;;2.80;2.13;;;10.10;99.90;;;;;;5066990;28;20169;-83
2022/05/30 07:05:49;;;;;;;2.30;2.10;;;10.20;99.90;;;;;;5065250;28;20179;-83
2022/05/30 07:08:15;;;;;;;3.57;2.00;;;10.30;99.90;;;;;;5067543;28;20229;-83
2022/05/30 07:10:42;;;;;;;2.20;1.80;;;10.40;99.90;;;;;;5074502;28;20190;-83
2022/05/30 07:13:07;;;;;;;1.70;1.60;;;10.50;99.90;;;;;;5075930;28;20204;-83
2022/05/30 07:15:35;;;;;;;2.23;2.03;;;10.60;99.90;;;;;;5076151;28;20170;-83
2022/05/30 07:18:08;;;;;;;2.63;1.57;;;10.60;99.90;;;;;;5064803;28;20193;-84
2022/05/30 07:20:33;;;;;;;2.07;1.37;;;10.70;99.90;;;;;;5073738;28;20226;-83
2022/05/30 07:23:00;;;;;;;2.00;1.47;;;10.70;99.90;;;;;;5069550;28;20185;-84
2022/05/30 07:25:26;;;;;;;5.63;1.60;;;10.70;99.90;;;;;;5075681;28;20609;-83
2022/05/30 07:27:51;;;;;;;1.37;1.20;;;10.60;99.90;;;;;;5075649;28;20232;-83
2022/05/30 07:30:17;;;;;;;2.07;1.80;;;10.70;99.90;;;;;;5076491;28;20185;-83
2022/05/30 07:32:43;;;;;;;3.50;1.80;;;10.70;99.90;;;;;;5068165;28;20220;-83
2022/05/30 07:35:09;;;;;;;2.43;1.60;;;10.70;99.90;;;;;;5059407;28;20196;-83
2022/05/30 07:37:35;;;;;;;1.70;1.60;;;10.90;99.90;;;;;;5057738;28;20201;-83
2022/05/30 07:40:00;;;;;;;2.93;1.63;;;11.10;99.90;;;;;;5058815;28;20170;-83
2022/05/30 07:42:26;;;;;;;1.30;1.20;;;11.30;99.90;;;;;;5057976;28;20717;-83
2022/05/30 07:44:52;;;;;;;4.03;1.60;;;11.50;99.90;;;;;;5057331;28;20196;-83
2022/05/30 07:47:18;;;;;;;1.50;1.40;;;11.80;99.90;;;;;;5057445;28;20694;-83
2022/05/30 07:49:44;;;;;;;1.47;1.27;;;11.90;99.90;;;;;;5057079;28;20751;-83
2022/05/30 07:52:10;;;;;;;1.57;1.47;;;11.80;99.90;;;;;;5058497;28;20185;-84
2022/05/30 07:54:36;;;;;;;1.50;1.27;;;11.80;99.90;;;;;;5056812;28;20178;-84
2022/05/30 07:57:08;;;;;;;1.30;1.20;;;11.80;99.90;;;;;;5056551;28;20204;-84
2022/05/30 07:59:36;;;;;;;1.27;0.97;;;11.80;99.90;;;;;;5055475;28;20204;-84
2022/05/30 08:02:04;;;;;;;2.60;1.37;;;11.80;99.90;;;;;;5056784;28;20173;-84
2022/05/30 08:04:30;;;;;;;2.27;1.87;;;11.80;99.90;;;;;;5054578;28;20174;-84
2022/05/30 08:06:55;;;;;;;1.63;1.27;;;11.90;99.90;;;;;;5054333;28;20559;-84
2022/05/30 08:09:21;;;;;;;2.30;1.47;;;12.00;99.90;;;;;;5057465;28;20174;-83
2022/05/30 08:11:47;;;;;;;1.47;1.13;;;12.20;99.90;;;;;;5062249;28;20196;-84
2022/05/30 08:14:13;;;;;;;1.30;1.20;;;12.40;99.90;;;;;;5062147;28;20658;-84
2022/05/30 08:16:38;;;;;;;2.17;1.30;;;12.60;99.90;;;;;;5060866;28;20206;-83
2022/05/30 08:19:08;;;;;;;2.10;1.60;;;12.60;99.90;;;;;;5062174;28;20177;-84
2022/05/30 08:21:34;;;;;;;3.00;1.50;;;12.50;99.90;;;;;;5060696;28;20209;-84
2022/05/30 08:24:00;;;;;;;1.20;1.10;;;12.30;99.90;;;;;;5060658;28;20181;-84
2022/05/30 08:26:26;;;;;;;1.30;1.20;;;12.30;99.90;;;;;;5060277;28;20211;-84
2022/05/30 08:28:52;;;;;;;3.20;1.30;;;12.40;99.90;;;;;;5062250;28;20235;-84
2022/05/30 08:31:17;;;;;;;3.17;1.20;;;12.60;99.90;;;;;;5061025;28;20300;-84
2022/05/30 08:33:43;;;;;;;1.13;1.03;;;12.80;99.90;;;;;;5061656;28;20242;-84
2022/05/30 08:36:11;;;;;;;2.77;1.13;;;13.00;99.90;;;;;;5061113;28;20607;-84
2022/05/30 08:38:39;;;;;;;1.77;1.50;;;13.20;99.90;;;;;;5061546;28;20535;-84
2022/05/30 08:43:55;;;;;;;5.50;0.93;;;13.90;99.90;;;;;;5063028;28;20188;-84
2022/05/30 08:46:32;;;;;;;0.90;0.80;;;14.20;99.90;;;;;;5061007;28;20198;-84
2022/05/30 08:49:11;;;;;;;3.10;1.10;;;14.60;99.90;;;;;;5060596;28;20177;-84
2022/05/30 08:51:51;;;;;;;1.57;1.00;;;14.80;99.90;;;;;;5062846;28;20162;-84
2022/05/30 08:54:54;;;;;;;2.50;0.90;;;15.00;99.90;;;;;;5059515;28;20198;-84
2022/05/30 08:57:55;;;;;;;5.00;0.93;;;15.20;99.90;;;;;;5059459;28;20195;-84
2022/05/30 09:00:38;;;;;;;1.07;0.87;;;15.30;99.90;;;;;;5060247;28;20277;-84
2022/05/30 09:03:12;;;;;;;1.53;1.10;;;15.50;99.90;;;;;;5061911;28;20168;-84
2022/05/30 09:05:59;;;;;;;2.13;1.00;;;15.70;99.90;;;;;;5060841;28;20197;-84
2022/05/30 09:08:58;;;;;;;3.10;1.33;;;15.40;99.90;;;;;;5063679;28;20258;-84
2022/05/30 09:11:54;;;;;;;1.07;0.97;;;15.30;99.90;;;;;;5062591;28;20187;-84
2022/05/30 09:14:37;;;;;;;1.90;1.20;;;15.70;99.90;;;;;;5062993;28;20250;-84
2022/05/30 09:17:10;;;;;;;1.90;1.00;;;16.00;99.90;;;;;;5066699;28;20564;-84
2022/05/30 09:19:35;;;;;;;1.10;1.00;;;16.00;99.90;;;;;;5065234;28;20268;-84
2022/05/30 09:22:04;;;;;;;1.90;1.40;;;15.70;99.90;;;;;;5067174;28;20189;-84
2022/05/30 09:24:34;;;;;;;2.60;1.53;;;15.30;99.90;;;;;;5069359;28;20199;-84
2022/05/30 09:27:02;;;;;;;2.70;1.40;;;15.30;99.90;;;;;;5059521;28;20211;-84
2022/05/30 09:29:41;;;;;;;3.33;1.40;;;15.10;99.90;;;;;;5060445;28;20177;-84
2022/05/30 09:32:34;;;;;;;2.33;1.10;;;14.90;99.90;;;;;;5059288;28;20184;-84
2022/05/30 09:35:19;;;;;;;1.67;1.10;;;15.30;99.90;;;;;;5060346;28;20160;-84
2022/05/30 09:37:45;;;;;;;1.33;1.17;;;15.60;99.90;;;;;;5059944;28;20206;-83
2022/05/30 09:40:11;;;;;;;2.27;1.30;;;15.80;99.90;;;;;;5059555;28;20543;-84
2022/05/30 09:42:47;;;;;;;1.43;1.13;;;16.20;99.90;;;;;;5059528;28;20235;-84
2022/05/30 09:45:24;;;;;;;1.70;1.20;;;16.60;99.90;;;;;;5059250;28;20166;-84
2022/05/30 09:48:04;;;;;;;1.80;1.03;;;17.00;99.90;;;;;;5063737;28;20193;-84
2022/05/30 09:50:30;;;;;;;1.80;1.13;;;17.40;99.90;;;;;;5062962;28;20168;-84
2022/05/30 09:52:56;;;;;;;2.50;0.97;;;17.60;99.90;;;;;;5063178;28;20227;-83
2022/05/30 09:55:24;;;;;;;2.10;1.10;;;17.90;99.90;;;;;;5063387;28;20644;-84
2022/05/30 09:57:52;;;;;;;2.63;1.10;;;18.10;99.90;;;;;;5064896;28;20217;-84
2022/05/30 10:00:20;;;;;;;2.30;1.00;;;18.10;99.90;;;;;;5063932;28;20190;-85
2022/05/30 10:02:59;;;;;;;1.30;1.13;;;18.30;99.90;;;;;;5066087;28;20181;-84
2022/05/30 10:05:28;;;;;;;2.30;1.10;;;18.50;99.90;;;;;;5065185;28;20173;-84
2022/05/30 10:08:00;;;;;;;1.53;1.13;;;18.80;99.90;;;;;;5064422;28;20200;-85
2022/05/30 10:10:40;;;;;;;1.97;1.27;;;19.00;99.90;;;;;;5063833;28;20176;-84
2022/05/30 10:13:08;;;;;;;1.33;1.20;;;19.00;99.90;;;;;;5063935;28;20217;-84
2022/05/30 10:15:38;;;;;;;2.90;1.10;;;19.00;99.90;;;;;;5064598;28;20176;-84
2022/05/30 10:18:13;;;;;;;1.20;1.00;;;18.50;99.90;;;;;;5065964;28;20189;-83
2022/05/30 10:21:05;;;;;;;1.20;1.10;;;17.80;99.90;;;;;;5063656;28;20177;-84
2022/05/30 10:29:42;;;;;;;1.30;1.00;;;19.00;99.90;;;;;;5064162;28;20175;-83
2022/05/30 10:32:18;;;;;;;0.80;0.80;;;19.40;99.90;;;;;;5069799;28;20189;-84
2022/05/30 10:34:58;;;;;;;2.73;1.10;;;19.70;99.90;;;;;;5072819;28;20162;-83
2022/05/30 10:37:51;;;;;;;1.37;1.10;;;20.00;99.90;;;;;;5069342;28;20250;-83
2022/05/30 10:40:25;;;;;;;2.37;1.20;;;20.00;99.90;;;;;;5061140;28;20174;-83
2022/05/30 10:42:55;;;;;;;2.00;1.47;;;20.30;99.30;;;;;;5060486;28;20175;-83
2022/05/30 10:45:57;;;;;;;3.13;1.37;;;20.40;99.90;;;;;;5060551;28;20669;-83
2022/05/30 10:48:46;;;;;;;1.23;0.90;;;20.70;99.90;;;;;;5060347;28;20176;-83
2022/05/30 10:51:29;;;;;;;2.53;0.97;;;20.70;96.70;;;;;;5059925;28;20213;-87
2022/05/30 10:54:16;;;;;;;1.33;1.00;;;21.00;99.70;;;;;;5060046;28;20194;-84
2022/05/30 10:56:47;;;;;;;1.83;1.00;;;21.10;98.90;;;;;;5059924;28;20200;-83
2022/05/30 10:59:15;;;;;;;1.10;0.90;;;21.20;92.10;;;;;;5058121;28;20200;-83
2022/05/30 11:01:49;;;;;;;0.97;0.83;;;21.20;97.60;;;;;;5058749;28;20182;-83
2022/05/30 11:04:36;;;;;;;1.87;1.27;;;21.50;96.20;;;;;;5057570;28;20177;-84
2022/05/30 11:07:24;;;;;;;2.20;1.07;;;21.30;94.30;;;;;;5057114;28;20198;-83
2022/05/30 11:09:58;;;;;;;3.33;1.17;;;21.20;98.60;;;;;;5055404;28;20177;-84
2022/05/30 11:12:31;;;;;;;2.87;1.10;;;21.40;95.90;;;;;;5061316;28;20195;-83
2022/05/30 11:15:01;;;;;;;0.90;0.80;;;21.10;97.00;;;;;;5063263;28;20171;-83
2022/05/30 11:17:48;;;;;;;1.00;0.90;;;21.20;97.60;;;;;;5063655;28;20551;-84
2022/05/30 11:20:20;;;;;;;2.03;1.03;;;21.70;96.00;;;;;;5060509;28;20176;-83
2022/05/30 11:22:52;;;;;;;2.90;1.03;;;21.80;91.70;;;;;;5061564;28;20173;-83
2022/05/30 11:25:21;;;;;;;1.17;0.97;;;21.80;93.60;;;;;;5061482;28;20174;-83
2022/05/30 11:28:21;;;;;;;2.87;1.03;;;22.10;95.20;;;;;;5062220;28;20208;-84
2022/05/30 11:31:13;;;;;;;1.03;0.90;;;22.20;95.00;;;;;;5064562;28;20164;-83
2022/05/30 11:34:09;;;;;;;1.40;1.00;;;22.30;93.00;;;;;;5059923;28;20321;-83
2022/05/30 11:36:38;;;;;;;2.43;1.20;;;21.70;82.40;;;;;;5061861;28;20208;-86
2022/05/30 11:39:16;;;;;;;2.80;1.10;;;21.00;90.40;;;;;;5062192;28;20170;-86
2022/05/30 11:42:20;;;;;;;1.83;1.50;;;20.20;90.90;;;;;;5062120;28;20187;-85
2022/05/30 11:44:50;;;;;;;3.10;1.50;;;21.00;95.40;;;;;;5041671;28;20272;-85
2022/05/30 11:47:40;;;;;;;5.67;1.10;;;21.30;97.50;;;;;;5056301;28;20206;-85
2022/05/30 11:50:20;;;;;;;1.87;1.43;;;22.50;94.30;;;;;;5060483;28;20269;-85
2022/05/30 11:53:10;;;;;;;2.83;1.10;;;22.30;90.80;;;;;;5060601;28;20651;-83
2022/05/30 11:55:36;;;;;;;3.20;1.20;;;21.10;89.40;;;;;;5060685;28;20665;-83
2022/05/30 11:58:09;;;;;;;2.10;1.07;;;19.70;85.00;;;;;;5060103;28;20194;-84
2022/05/30 12:00:49;;;;;;;2.20;1.27;;;19.40;85.70;;;;;;5060249;28;20187;-83
2022/05/30 12:03:26;;;;;;;1.30;1.20;;;19.90;91.70;;;;;;5058810;28;20214;-83
2022/05/30 12:06:02;;;;;;;2.10;1.00;;;21.30;92.10;;;;;;5059130;28;20663;-83
2022/05/30 12:08:58;;;;;;;3.00;1.07;;;22.80;88.80;;;;;;5058844;28;20180;-83
2022/05/30 12:12:01;;;;;;;1.37;1.13;;;23.80;93.20;;;;;;5058709;28;20179;-83
2022/05/30 12:14:57;;;;;;;2.30;1.20;;;24.30;84.40;;;;;;5058518;28;20207;-83
2022/05/30 12:23:59;;;;;;;4.27;1.20;;;25.20;90.50;;;;;;5062737;28;20675;-85
2022/05/30 12:26:53;;;;;;;1.40;1.00;;;26.10;83.40;;;;;;5060219;28;20700;-83
2022/05/30 12:29:37;;;;;;;2.07;1.20;;;25.50;79.10;;;;;;5059351;28;20202;-84
2022/05/30 12:32:12;;;;;;;2.50;1.40;;;23.90;73.80;;;;;;5059932;28;20188;-83
2022/05/30 12:35:26;;;;;;;3.27;1.20;;;22.00;77.10;;;;;;5060572;28;20604;-85
2022/05/30 12:37:58;;;;;;;2.40;1.43;;;20.90;78.50;;;;;;5051556;28;20213;-84
2022/05/30 12:40:26;;;;;;;2.07;1.10;;;20.20;81.30;;;;;;5059210;28;20658;-83
2022/05/30 12:43:07;;;;;;;1.37;1.27;;;19.50;79.60;;;;;;5061142;28;20182;-83
2022/05/30 12:45:38;;;;;;;3.70;1.37;;;18.70;87.40;;;;;;5059567;28;20203;-84
2022/05/30 12:48:18;;;;;;;2.43;1.00;;;18.80;92.00;;;;;;5061900;28;20187;-84
2022/05/30 12:51:18;;;;;;;1.60;1.00;;;20.50;92.90;;;;;;5060389;28;20170;-84
2022/05/30 12:53:59;;;;;;;1.47;1.13;;;22.60;86.10;;;;;;5043753;28;20249;-85
2022/05/30 12:56:37;;;;;;;6.13;1.20;;;23.70;80.90;;;;;;5060032;28;20204;-84
2022/05/30 12:59:02;;;;;;;2.73;1.20;;;24.50;77.60;;;;;;5070205;28;20706;-82
2022/05/30 13:01:44;;;;;;;1.80;1.03;;;24.20;79.10;;;;;;5061989;28;20184;-84
2022/05/30 13:04:15;;;;;;;1.27;0.80;;;22.50;70.50;;;;;;5058067;28;20176;-83
2022/05/30 13:06:56;;;;;;;1.43;1.07;;;20.90;75.10;;;;;;5057076;28;20559;-83
2022/05/30 13:09:34;;;;;;;2.10;1.00;;;20.00;86.40;;;;;;5057826;28;20176;-83
2022/05/30 13:12:17;;;;;;;1.67;1.00;;;19.30;80.10;;;;;;5058321;28;20168;-82
2022/05/30 13:15:00;;;;;;;1.67;1.20;;;19.10;89.40;;;;;;5060786;28;20162;-83
2022/05/30 13:17:57;;;;;;;3.43;1.47;;;20.50;87.70;;;;;;5063542;28;20195;-83
2022/05/30 13:20:32;;;;;;;1.50;1.10;;;22.10;85.90;;;;;;5067118;28;20205;-83
2022/05/30 13:23:02;;;;;;;4.40;1.30;;;23.00;86.10;;;;;;5070078;28;20191;-82
2022/05/30 13:25:37;;;;;;;5.23;1.10;;;23.70;90.10;;;;;;5072436;28;20231;-82
2022/05/30 13:28:13;;;;;;;3.83;1.10;;;24.40;73.10;;;;;;5065102;28;20201;-84
2022/05/30 13:30:39;;;;;;;2.03;1.10;;;24.00;71.10;;;;;;5058808;28;20632;-84
2022/05/30 13:33:14;;;;;;;1.00;0.90;;;23.70;76.90;;;;;;5059650;28;20257;-84
2022/05/30 13:35:41;;;;;;;3.70;1.10;;;24.10;80.90;;;;;;5059644;28;20187;-85
2022/05/30 13:38:10;;;;;;;1.53;1.00;;;24.00;73.10;;;;;;5059437;28;20183;-84
2022/05/30 13:40:37;;;;;;;1.83;0.93;;;23.10;70.20;;;;;;5060158;28;20223;-84
2022/05/30 13:43:06;;;;;;;1.23;0.90;;;22.10;80.60;;;;;;5058988;28;20188;-84
2022/05/30 13:45:44;;;;;;;1.77;1.00;;;21.20;82.70;;;;;;5059652;28;20190;-83
2022/05/30 13:48:15;;;;;;;1.60;1.10;;;21.30;77.00;;;;;;5059628;28;20178;-83
2022/05/30 13:50:54;;;;;;;1.17;1.07;;;22.10;79.90;;;;;;5058968;28;20187;-83
2022/05/30 13:53:34;;;;;;;1.60;1.10;;;22.30;79.80;;;;;;5059398;28;20207;-85